createdAt,value
2023-09-22T00:00:45.537Z,19.32
2023-09-22T00:02:07.319Z,19.31
2023-09-22T00:03:12.120Z,19.29
2023-09-22T00:04:15.011Z,19.27
2023-09-22T00:05:18.269Z,19.25
2023-09-22T00:06:23.381Z,19.23
2023-09-22T00:07:26.604Z,19.22
2023-09-22T00:08:29.563Z,19.21
2023-09-22T00:09:34.097Z,19.19
2023-09-22T00:10:37.066Z,19.17
2023-09-22T00:11:39.979Z,19.16
2023-09-22T00:12:43.252Z,19.15
2023-09-22T00:13:46.949Z,19.14
2023-09-22T00:14:50.009Z,19.14
2023-09-22T00:15:53.002Z,19.13
2023-09-22T00:16:56.367Z,19.11
2023-09-22T00:17:59.569Z,19.11
2023-09-22T00:19:06.441Z,19.10
2023-09-22T00:20:10.273Z,19.09
2023-09-22T00:21:13.242Z,19.08
2023-09-22T00:22:16.813Z,19.06
2023-09-22T00:23:19.844Z,19.05
2023-09-22T00:24:23.550Z,19.03
2023-09-22T00:25:26.904Z,19.03
2023-09-22T00:26:30.184Z,19.02
2023-09-22T00:27:33.274Z,19.01
2023-09-22T00:28:36.413Z,19.00
2023-09-22T00:29:39.396Z,19.00
2023-09-22T00:30:42.497Z,19.01
2023-09-22T00:31:45.922Z,19.00
2023-09-22T00:32:49.734Z,18.98
2023-09-22T00:33:53.427Z,18.97
2023-09-22T00:34:56.485Z,18.96
2023-09-22T00:36:03.627Z,18.96
2023-09-22T00:37:07.871Z,18.95
2023-09-22T00:38:11.915Z,18.94
2023-09-22T00:39:15.687Z,18.92
2023-09-22T00:40:18.757Z,18.92
2023-09-22T00:41:22.316Z,18.91
2023-09-22T00:42:25.472Z,18.91
2023-09-22T00:43:29.069Z,18.91
2023-09-22T00:44:32.369Z,18.91
2023-09-22T00:45:41.608Z,18.91
2023-09-22T00:46:44.602Z,18.91
2023-09-22T00:47:47.550Z,18.89
2023-09-22T00:48:51.717Z,18.89
2023-09-22T00:49:55.416Z,18.89
2023-09-22T00:50:58.830Z,18.88
2023-09-22T00:52:03.409Z,18.88
2023-09-22T00:53:06.846Z,18.86
2023-09-22T00:54:10.909Z,18.85
2023-09-22T00:55:14.088Z,18.85
2023-09-22T00:56:20.952Z,18.84
2023-09-22T00:57:24.266Z,18.84
2023-09-22T00:58:27.402Z,18.83
2023-09-22T00:59:30.361Z,18.82
2023-09-22T01:00:33.666Z,18.82
2023-09-22T01:01:37.000Z,18.81
2023-09-22T01:02:40.738Z,18.80
2023-09-22T01:03:44.289Z,18.79
2023-09-22T01:04:47.555Z,18.78
2023-09-22T01:05:51.859Z,18.77
2023-09-22T01:06:56.555Z,18.76
2023-09-22T01:07:59.515Z,18.72
2023-09-22T01:09:06.918Z,18.70
2023-09-22T01:10:10.985Z,18.69
2023-09-22T01:11:14.796Z,18.69
2023-09-22T01:12:17.851Z,18.68
2023-09-22T01:13:20.992Z,18.68
2023-09-22T01:14:23.961Z,18.66
2023-09-22T01:15:27.035Z,18.66
2023-09-22T01:16:33.804Z,18.65
2023-09-22T01:17:36.811Z,18.64
2023-09-22T01:18:39.806Z,18.63
2023-09-22T01:19:43.223Z,18.63
2023-09-22T01:20:46.816Z,18.62
2023-09-22T01:21:50.232Z,18.60
2023-09-22T01:22:53.604Z,18.59
2023-09-22T01:23:56.996Z,18.58
2023-09-22T01:24:59.992Z,18.58
2023-09-22T01:26:02.883Z,18.57
2023-09-22T01:27:06.868Z,18.57
2023-09-22T01:28:11.061Z,18.55
2023-09-22T01:29:14.418Z,18.56
2023-09-22T01:30:17.978Z,18.54
2023-09-22T01:32:58.814Z,18.50
2023-09-22T01:34:03.328Z,18.48
2023-09-22T01:35:09.625Z,18.48
2023-09-22T01:36:14.921Z,18.48
2023-09-22T01:37:18.829Z,18.46
2023-09-22T01:38:26.422Z,18.45
2023-09-22T01:39:30.024Z,18.44
2023-09-22T01:40:33.468Z,18.43
2023-09-22T01:41:36.955Z,18.42
2023-09-22T01:42:40.132Z,18.40
2023-09-22T01:43:43.327Z,18.40
2023-09-22T01:44:46.262Z,18.39
2023-09-22T01:45:49.349Z,18.39
2023-09-22T01:46:52.415Z,18.38
2023-09-22T01:47:55.307Z,18.38
2023-09-22T01:48:58.542Z,18.36
2023-09-22T01:50:01.535Z,18.35
2023-09-22T01:51:05.042Z,18.34
2023-09-22T01:52:07.996Z,18.33
2023-09-22T01:53:12.146Z,18.33
2023-09-22T01:54:15.526Z,18.31
2023-09-22T01:55:18.577Z,18.31
2023-09-22T01:56:22.561Z,18.30
2023-09-22T01:57:25.567Z,18.30
2023-09-22T01:58:28.643Z,18.29
2023-09-22T01:59:31.751Z,18.27
2023-09-22T02:00:35.828Z,18.26
2023-09-22T02:01:38.792Z,18.24
2023-09-22T02:02:44.596Z,18.24
2023-09-22T02:03:48.132Z,18.23
2023-09-22T02:04:51.325Z,18.22
2023-09-22T02:05:54.868Z,18.21
2023-09-22T02:06:58.304Z,18.20
2023-09-22T02:08:01.415Z,18.19
2023-09-22T02:09:05.378Z,18.18
2023-09-22T02:10:11.189Z,18.18
2023-09-22T02:11:14.234Z,18.15
2023-09-22T02:12:17.151Z,18.14
2023-09-22T02:13:20.112Z,18.13
2023-09-22T02:14:23.103Z,18.14
2023-09-22T02:15:26.277Z,18.13
2023-09-22T02:16:29.483Z,18.14
2023-09-22T02:17:32.990Z,18.14
2023-09-22T02:18:36.835Z,18.14
2023-09-22T02:19:39.885Z,18.13
2023-09-22T02:20:43.437Z,18.12
2023-09-22T02:21:47.291Z,18.11
2023-09-22T02:22:51.592Z,18.11
2023-09-22T02:23:55.006Z,18.10
2023-09-22T02:24:58.596Z,18.10
2023-09-22T02:26:08.452Z,18.09
2023-09-22T02:27:11.473Z,18.09
2023-09-22T02:28:14.495Z,18.07
2023-09-22T02:29:17.442Z,18.05
2023-09-22T02:30:20.995Z,18.02
2023-09-22T02:31:25.330Z,18.02
2023-09-22T02:32:28.273Z,18.01
2023-09-22T02:33:31.998Z,18.00
2023-09-22T02:34:35.959Z,18.00
2023-09-22T02:35:42.548Z,17.99
2023-09-22T02:36:46.399Z,17.99
2023-09-22T02:37:50.306Z,17.97
2023-09-22T02:38:54.161Z,17.98
2023-09-22T02:39:57.430Z,17.97
2023-09-22T02:41:00.416Z,17.96
2023-09-22T02:43:54.602Z,17.94
2023-09-22T02:45:10.181Z,18.04
2023-09-22T02:46:13.296Z,18.04
2023-09-22T02:47:17.445Z,18.02
2023-09-22T02:48:20.515Z,17.99
2023-09-22T02:49:24.255Z,17.97
2023-09-22T02:50:27.187Z,17.96
2023-09-22T02:51:30.544Z,17.94
2023-09-22T02:52:34.121Z,17.92
2023-09-22T02:53:37.179Z,17.90
2023-09-22T02:54:40.355Z,17.88
2023-09-22T02:55:43.363Z,17.87
2023-09-22T02:56:46.328Z,17.86
2023-09-22T02:57:49.483Z,17.85
2023-09-22T02:58:52.574Z,17.85
2023-09-22T02:59:55.944Z,17.84
2023-09-22T03:00:59.098Z,17.82
2023-09-22T03:02:02.165Z,17.81
2023-09-22T03:03:06.591Z,17.82
2023-09-22T03:04:10.920Z,17.81
2023-09-22T03:05:18.656Z,17.80
2023-09-22T03:06:23.908Z,17.79
2023-09-22T03:07:26.928Z,17.79
2023-09-22T03:08:32.778Z,17.78
2023-09-22T03:09:35.755Z,17.78
2023-09-22T03:10:40.893Z,17.77
2023-09-22T03:11:44.272Z,17.77
2023-09-22T03:12:52.362Z,17.75
2023-09-22T03:13:55.242Z,17.75
2023-09-22T03:14:58.206Z,17.75
2023-09-22T03:16:02.176Z,17.74
2023-09-22T03:17:05.490Z,17.73
2023-09-22T03:18:08.551Z,17.72
2023-09-22T03:19:11.593Z,17.72
2023-09-22T03:20:15.039Z,17.70
2023-09-22T03:21:23.776Z,17.70
2023-09-22T03:22:27.291Z,17.68
2023-09-22T03:23:30.165Z,17.66
2023-09-22T03:24:33.168Z,17.65
2023-09-22T03:25:36.258Z,17.63
2023-09-22T03:26:39.689Z,17.61
2023-09-22T03:27:42.613Z,17.61
2023-09-22T03:28:47.586Z,17.58
2023-09-22T03:29:50.681Z,17.58
2023-09-22T03:30:53.618Z,17.56
2023-09-22T03:31:56.918Z,17.56
2023-09-22T03:33:00.187Z,17.55
2023-09-22T03:34:03.822Z,17.54
2023-09-22T03:35:08.395Z,17.52
2023-09-22T03:36:11.566Z,17.52
2023-09-22T03:37:14.856Z,17.52
2023-09-22T03:38:18.044Z,17.51
2023-09-22T03:39:23.106Z,17.51
2023-09-22T03:40:42.040Z,17.50
2023-09-22T03:41:46.255Z,17.50
2023-09-22T03:42:49.279Z,17.49
2023-09-22T03:43:52.481Z,17.48
2023-09-22T03:44:55.362Z,17.48
2023-09-22T03:45:58.633Z,17.47
2023-09-22T03:47:01.632Z,17.46
2023-09-22T03:48:05.220Z,17.47
2023-09-22T03:49:08.960Z,17.45
2023-09-22T03:50:12.243Z,17.43
2023-09-22T03:51:15.566Z,17.43
2023-09-22T03:52:18.530Z,17.43
2023-09-22T03:53:22.286Z,17.43
2023-09-22T03:54:25.544Z,17.42
2023-09-22T03:55:28.527Z,17.42
2023-09-22T03:56:33.097Z,17.42
2023-09-22T03:57:36.461Z,17.42
2023-09-22T03:58:41.245Z,17.41
2023-09-22T03:59:44.230Z,17.40
2023-09-22T04:00:47.715Z,17.41
2023-09-22T04:01:52.529Z,17.41
2023-09-22T04:02:55.641Z,17.41
2023-09-22T04:03:58.988Z,17.41
2023-09-22T04:05:02.169Z,17.41
2023-09-22T04:06:06.282Z,17.41
2023-09-22T04:07:09.221Z,17.41
2023-09-22T04:08:12.030Z,17.39
2023-09-22T04:09:15.049Z,17.39
2023-09-22T04:10:18.185Z,17.38
2023-09-22T04:11:21.781Z,17.38
2023-09-22T04:12:24.768Z,17.38
2023-09-22T04:13:28.368Z,17.38
2023-09-22T04:14:31.823Z,17.37
2023-09-22T04:15:35.001Z,17.36
2023-09-22T04:16:37.983Z,17.35
2023-09-22T04:17:41.027Z,17.34
2023-09-22T04:18:44.566Z,17.34
2023-09-22T04:19:50.735Z,17.34
2023-09-22T04:20:53.824Z,17.34
2023-09-22T04:21:57.831Z,17.34
2023-09-22T04:23:00.832Z,17.33
2023-09-22T04:24:04.829Z,17.34
2023-09-22T04:25:12.621Z,17.33
2023-09-22T04:26:17.682Z,17.33
2023-09-22T04:27:20.646Z,17.32
2023-09-22T04:28:26.609Z,17.32
2023-09-22T04:29:31.212Z,17.32
2023-09-22T04:30:36.243Z,17.32
2023-09-22T04:31:39.646Z,17.31
2023-09-22T04:32:44.265Z,17.32
2023-09-22T04:33:48.381Z,17.31
2023-09-22T04:34:54.751Z,17.30
2023-09-22T04:35:58.180Z,17.28
2023-09-22T04:37:05.516Z,17.27
2023-09-22T04:38:10.353Z,17.25
2023-09-22T04:39:15.666Z,17.25
2023-09-22T04:40:38.228Z,17.25
2023-09-22T04:41:42.049Z,17.25
2023-09-22T04:42:46.198Z,17.23
2023-09-22T04:43:49.396Z,17.22
2023-09-22T04:44:53.143Z,17.23
2023-09-22T04:45:56.158Z,17.23
2023-09-22T04:46:59.369Z,17.22
2023-09-22T04:48:06.253Z,17.22
2023-09-22T04:49:11.316Z,17.23
2023-09-22T04:50:18.913Z,17.22
2023-09-22T04:51:21.792Z,17.23
2023-09-22T04:52:25.066Z,17.23
2023-09-22T04:53:29.381Z,17.23
2023-09-22T04:54:32.914Z,17.22
2023-09-22T04:55:38.993Z,17.23
2023-09-22T04:56:42.021Z,17.24
2023-09-22T04:57:45.192Z,17.24
2023-09-22T04:58:48.806Z,17.24
2023-09-22T04:59:54.314Z,17.25
2023-09-22T05:00:59.092Z,17.26
2023-09-22T05:02:02.047Z,17.26
2023-09-22T05:03:08.820Z,17.26
2023-09-22T05:04:12.564Z,17.27
2023-09-22T05:05:20.119Z,17.28
2023-09-22T05:06:23.115Z,17.29
2023-09-22T05:07:29.163Z,17.31
2023-09-22T05:08:32.734Z,17.31
2023-09-22T05:09:35.560Z,17.33
2023-09-22T05:10:38.532Z,17.34
2023-09-22T05:11:41.370Z,17.35
2023-09-22T05:12:44.539Z,17.36
2023-09-22T05:13:47.599Z,17.36
2023-09-22T05:14:50.727Z,17.38
2023-09-22T05:15:53.754Z,17.39
2023-09-22T05:16:56.669Z,17.41
2023-09-22T05:17:59.595Z,17.43
2023-09-22T05:19:02.659Z,17.45
2023-09-22T05:20:13.145Z,17.47
2023-09-22T05:21:16.297Z,17.49
2023-09-22T05:22:19.188Z,17.51
2023-09-22T05:23:24.295Z,17.53
2023-09-22T05:24:28.093Z,17.55
2023-09-22T05:25:31.687Z,17.57
2023-09-22T05:26:36.067Z,17.59
2023-09-22T05:27:42.026Z,17.62
2023-09-22T05:28:45.320Z,17.65
2023-09-22T05:29:48.509Z,17.69
2023-09-22T05:30:51.598Z,17.72
2023-09-22T05:31:54.649Z,17.75
2023-09-22T05:32:57.577Z,17.78
2023-09-22T05:34:00.689Z,17.81
2023-09-22T05:35:04.238Z,17.85
2023-09-22T05:36:07.701Z,17.88
2023-09-22T05:37:12.328Z,17.90
2023-09-22T05:38:15.204Z,17.94
2023-09-22T05:39:18.062Z,17.97
2023-09-22T05:40:21.141Z,18.02
2023-09-22T05:41:24.375Z,18.05
2023-09-22T05:42:27.326Z,18.08
2023-09-22T05:43:32.264Z,18.11
2023-09-22T05:44:35.674Z,18.15
2023-09-22T05:45:38.876Z,18.19
2023-09-22T05:46:42.112Z,18.22
2023-09-22T05:47:44.968Z,18.25
2023-09-22T05:48:48.309Z,18.29
2023-09-22T05:49:51.413Z,18.33
2023-09-22T05:50:58.976Z,18.35
2023-09-22T05:52:02.302Z,18.39
2023-09-22T05:53:05.656Z,18.43
2023-09-22T05:54:09.638Z,18.45
2023-09-22T05:55:13.644Z,18.48
2023-09-22T05:56:16.963Z,18.51
2023-09-22T05:57:19.957Z,18.54
2023-09-22T05:58:22.954Z,18.57
2023-09-22T05:59:29.032Z,18.61
2023-09-22T06:00:33.233Z,18.66
2023-09-22T06:01:38.810Z,18.69
2023-09-22T06:02:42.011Z,18.77
2023-09-22T06:03:45.864Z,18.84
2023-09-22T06:04:48.919Z,18.92
2023-09-22T06:05:51.953Z,18.97
2023-09-22T06:06:55.595Z,19.03
2023-09-22T06:08:00.339Z,19.10
2023-09-22T06:09:05.004Z,19.15
2023-09-22T06:10:09.936Z,19.18
2023-09-22T06:11:12.978Z,19.22
2023-09-22T06:12:16.097Z,19.25
2023-09-22T06:13:19.203Z,19.28
2023-09-22T06:14:22.161Z,19.29
2023-09-22T06:15:25.044Z,19.29
2023-09-22T06:16:27.993Z,19.31
2023-09-22T06:17:31.586Z,19.34
2023-09-22T06:18:35.126Z,19.35
2023-09-22T06:19:38.060Z,19.37
2023-09-22T06:20:40.957Z,19.40
2023-09-22T06:21:44.837Z,19.42
2023-09-22T06:22:54.133Z,19.44
2023-09-22T06:23:57.813Z,19.45
2023-09-22T06:25:00.847Z,19.46
2023-09-22T06:26:11.833Z,19.49
2023-09-22T06:27:14.976Z,19.55
2023-09-22T06:28:20.049Z,19.60
2023-09-22T06:29:23.511Z,19.72
2023-09-22T06:30:26.755Z,19.81
2023-09-22T06:31:29.709Z,19.93
2023-09-22T06:32:32.692Z,20.00
2023-09-22T06:33:35.733Z,19.99
2023-09-22T06:34:38.762Z,19.97
2023-09-22T06:35:41.890Z,19.95
2023-09-22T06:36:44.805Z,19.95
2023-09-22T06:37:47.703Z,19.96
2023-09-22T06:38:51.854Z,19.97
2023-09-22T06:39:55.034Z,19.98
2023-09-22T06:40:57.958Z,19.99
2023-09-22T06:42:00.901Z,20.01
2023-09-22T06:43:20.509Z,20.04
2023-09-22T06:44:29.042Z,20.07
2023-09-22T06:45:35.631Z,20.10
2023-09-22T06:46:38.615Z,20.13
2023-09-22T06:47:45.107Z,20.16
2023-09-22T06:48:48.239Z,20.19
2023-09-22T06:49:51.361Z,20.22
2023-09-22T06:50:55.222Z,20.27
2023-09-22T06:51:58.325Z,20.37
2023-09-22T06:53:01.274Z,20.47
2023-09-22T06:54:05.356Z,20.52
2023-09-22T06:55:12.716Z,20.56
2023-09-22T06:56:15.826Z,20.60
2023-09-22T06:57:18.673Z,20.63
2023-09-22T06:58:22.617Z,20.64
2023-09-22T06:59:26.926Z,20.67
2023-09-22T07:00:30.340Z,20.70
2023-09-22T07:01:34.056Z,20.73
2023-09-22T07:02:37.211Z,20.77
2023-09-22T07:03:41.867Z,20.79
2023-09-22T07:04:45.230Z,20.81
2023-09-22T07:05:48.492Z,20.83
2023-09-22T07:06:53.647Z,20.86
2023-09-22T07:07:56.655Z,20.90
2023-09-22T07:08:59.597Z,20.93
2023-09-22T07:10:04.397Z,20.97
2023-09-22T07:11:12.135Z,21.00
2023-09-22T07:12:15.523Z,21.04
2023-09-22T07:13:18.296Z,21.08
2023-09-22T07:14:21.159Z,21.15
2023-09-22T07:15:24.350Z,21.26
2023-09-22T07:16:27.567Z,21.37
2023-09-22T07:17:30.873Z,21.48
2023-09-22T07:18:33.869Z,21.56
2023-09-22T07:19:39.872Z,21.63
2023-09-22T07:20:46.077Z,21.67
2023-09-22T07:21:50.289Z,21.72
2023-09-22T07:22:53.378Z,21.76
2023-09-22T07:23:57.573Z,21.79
2023-09-22T07:25:01.128Z,21.82
2023-09-22T07:26:06.212Z,21.84
2023-09-22T07:27:09.606Z,21.87
2023-09-22T07:28:12.807Z,21.89
2023-09-22T07:29:18.301Z,21.91
2023-09-22T07:30:21.189Z,21.92
2023-09-22T07:31:29.630Z,21.93
2023-09-22T07:32:33.045Z,21.93
2023-09-22T07:33:36.093Z,21.93
2023-09-22T07:34:39.403Z,21.95
2023-09-22T07:35:43.267Z,21.99
2023-09-22T07:36:46.533Z,22.03
2023-09-22T07:37:49.590Z,22.08
2023-09-22T07:38:53.162Z,22.13
2023-09-22T07:39:56.064Z,22.18
2023-09-22T07:41:00.218Z,22.21
2023-09-22T07:42:04.307Z,22.25
2023-09-22T07:43:08.339Z,22.28
2023-09-22T07:44:11.431Z,22.32
2023-09-22T07:45:14.425Z,22.34
2023-09-22T07:46:17.571Z,22.38
2023-09-22T07:47:20.549Z,22.41
2023-09-22T07:48:23.703Z,22.44
2023-09-22T07:49:27.331Z,22.47
2023-09-22T07:50:30.866Z,22.51
2023-09-22T07:51:34.995Z,22.56
2023-09-22T07:52:38.338Z,22.60
2023-09-22T07:53:41.570Z,22.63
2023-09-22T07:54:46.544Z,22.65
2023-09-22T07:55:49.720Z,22.69
2023-09-22T07:56:52.640Z,22.72
2023-09-22T07:57:55.765Z,22.75
2023-09-22T07:59:12.845Z,22.79
2023-09-22T08:00:20.368Z,22.83
2023-09-22T08:01:25.730Z,22.86
2023-09-22T08:02:28.739Z,22.90
2023-09-22T08:03:31.670Z,22.94
2023-09-22T08:04:35.828Z,22.98
2023-09-22T08:05:40.768Z,23.03
2023-09-22T08:06:44.303Z,23.04
2023-09-22T08:07:48.800Z,23.06
2023-09-22T08:08:53.149Z,23.09
2023-09-22T08:09:56.383Z,23.12
2023-09-22T08:11:00.947Z,23.14
2023-09-22T08:12:05.710Z,23.18
2023-09-22T08:13:09.022Z,23.21
2023-09-22T08:14:12.041Z,23.24
2023-09-22T08:15:16.175Z,23.28
2023-09-22T08:16:19.985Z,23.31
2023-09-22T08:17:22.951Z,23.33
2023-09-22T08:18:25.958Z,23.36
2023-09-22T08:19:29.099Z,23.38
2023-09-22T08:20:33.086Z,23.40
2023-09-22T08:21:36.365Z,23.41
2023-09-22T08:22:41.826Z,23.43
2023-09-22T08:23:49.328Z,23.44
2023-09-22T08:24:55.496Z,23.47
2023-09-22T08:25:58.679Z,23.49
2023-09-22T08:27:02.608Z,23.52
2023-09-22T08:28:05.830Z,23.53
2023-09-22T08:29:10.662Z,23.55
2023-09-22T08:30:13.834Z,23.57
2023-09-22T08:31:17.120Z,23.60
2023-09-22T08:32:20.203Z,23.62
2023-09-22T08:33:23.988Z,23.64
2023-09-22T08:34:27.322Z,23.67
2023-09-22T08:35:30.409Z,23.69
2023-09-22T08:36:34.585Z,23.71
2023-09-22T08:37:39.664Z,23.72
2023-09-22T08:38:43.135Z,23.73
2023-09-22T08:39:46.358Z,23.74
2023-09-22T08:40:49.396Z,23.76
2023-09-22T08:41:52.820Z,23.78
2023-09-22T08:42:57.217Z,23.81
2023-09-22T08:44:00.767Z,23.85
2023-09-22T08:45:04.395Z,23.88
2023-09-22T08:46:07.543Z,23.92
2023-09-22T08:47:10.820Z,23.95
2023-09-22T08:48:14.043Z,23.99
2023-09-22T08:49:17.273Z,24.02
2023-09-22T08:50:21.131Z,24.07
2023-09-22T08:51:24.220Z,24.12
2023-09-22T08:52:28.683Z,24.17
2023-09-22T08:53:31.547Z,24.23
2023-09-22T08:54:36.017Z,24.27
2023-09-22T08:55:41.896Z,24.32
2023-09-22T08:56:45.383Z,24.36
2023-09-22T08:57:50.110Z,24.40
2023-09-22T08:58:53.147Z,24.44
2023-09-22T08:59:58.154Z,24.49
2023-09-22T09:01:03.499Z,24.56
2023-09-22T09:02:07.501Z,24.61
2023-09-22T09:03:11.400Z,24.70
2023-09-22T09:04:33.358Z,24.75
2023-09-22T09:05:38.044Z,24.80
2023-09-22T09:06:48.775Z,24.83
2023-09-22T09:07:53.102Z,24.87
2023-09-22T09:09:10.891Z,24.91
2023-09-22T09:10:26.343Z,24.94
2023-09-22T09:11:29.548Z,24.97
2023-09-22T09:12:34.579Z,25.01
2023-09-22T09:13:39.127Z,25.06
2023-09-22T09:14:43.881Z,25.10
2023-09-22T09:15:52.059Z,25.15
2023-09-22T09:16:58.348Z,25.19
2023-09-22T09:18:09.128Z,25.20
2023-09-22T09:19:18.932Z,25.23
2023-09-22T09:20:21.992Z,25.24
2023-09-22T09:21:24.861Z,25.23
2023-09-22T09:22:39.918Z,25.21
2023-09-22T09:23:54.385Z,25.21
2023-09-22T09:25:00.276Z,25.20
2023-09-22T09:26:03.846Z,25.18
2023-09-22T09:27:20.370Z,25.16
2023-09-22T09:28:24.992Z,25.13
2023-09-22T09:29:29.610Z,25.13
2023-09-22T09:30:33.545Z,25.14
2023-09-22T09:31:49.464Z,25.15
2023-09-22T09:32:52.594Z,25.14
2023-09-22T09:33:55.684Z,25.12
2023-09-22T09:34:59.080Z,25.12
2023-09-22T09:36:16.196Z,25.13
2023-09-22T09:37:20.577Z,25.15
2023-09-22T09:38:30.956Z,25.17
2023-09-22T09:39:54.394Z,25.19
2023-09-22T09:40:59.798Z,25.23
2023-09-22T09:42:03.298Z,25.24
2023-09-22T09:43:08.163Z,25.27
2023-09-22T09:44:12.551Z,25.28
2023-09-22T09:45:18.588Z,25.28
2023-09-22T09:46:22.819Z,25.30
2023-09-22T09:47:29.967Z,25.32
2023-09-22T09:48:38.701Z,25.35
2023-09-22T09:49:44.323Z,25.39
2023-09-22T09:50:49.429Z,25.44
2023-09-22T09:51:53.942Z,25.49
2023-09-22T09:53:00.412Z,25.52
2023-09-22T09:54:09.080Z,25.55
2023-09-22T09:55:14.121Z,25.60
2023-09-22T09:56:18.689Z,25.64
2023-09-22T09:57:21.891Z,25.66
2023-09-22T09:58:26.957Z,25.66
2023-09-22T09:59:30.157Z,25.64
2023-09-22T10:00:36.806Z,25.62
2023-09-22T10:01:41.926Z,25.61
2023-09-22T10:02:46.921Z,25.60
2023-09-22T10:03:51.264Z,25.59
2023-09-22T10:04:56.428Z,25.57
2023-09-22T10:05:59.671Z,25.56
2023-09-22T10:07:04.092Z,25.57
2023-09-22T10:08:08.307Z,25.58
2023-09-22T10:09:13.100Z,25.60
2023-09-22T10:10:22.758Z,25.62
2023-09-22T10:11:26.413Z,25.65
2023-09-22T10:12:31.567Z,25.69
2023-09-22T10:13:37.704Z,25.73
2023-09-22T10:14:48.618Z,25.77
2023-09-22T10:15:53.633Z,25.79
2023-09-22T10:16:56.673Z,25.83
2023-09-22T10:17:59.807Z,25.87
2023-09-22T10:19:04.262Z,25.90
2023-09-22T10:20:13.035Z,25.92
2023-09-22T10:21:37.474Z,25.97
2023-09-22T10:22:41.294Z,26.01
2023-09-22T10:24:19.375Z,26.06
2023-09-22T10:25:33.831Z,26.16
2023-09-22T10:26:37.506Z,26.23
2023-09-22T10:29:36.191Z,26.37
2023-09-22T10:30:45.548Z,26.46
2023-09-22T10:32:17.290Z,26.55
2023-09-22T10:33:33.793Z,26.68
2023-09-22T10:34:51.218Z,26.77
2023-09-22T10:35:57.510Z,26.85
2023-09-22T10:37:10.080Z,26.91
2023-09-22T10:38:13.293Z,26.99
2023-09-22T10:39:16.706Z,27.12
2023-09-22T10:40:20.878Z,27.22
2023-09-22T10:41:23.909Z,27.33
2023-09-22T10:42:28.166Z,27.43
2023-09-22T10:43:33.980Z,27.51
2023-09-22T10:45:00.824Z,27.59
2023-09-22T10:46:04.645Z,27.69
2023-09-22T10:47:09.106Z,27.72
2023-09-22T10:48:13.103Z,27.73
2023-09-22T10:49:33.731Z,27.71
2023-09-22T10:50:36.789Z,27.66
2023-09-22T10:51:44.560Z,27.63
2023-09-22T10:52:54.577Z,27.62
2023-09-22T10:54:03.655Z,27.61
2023-09-22T10:55:07.378Z,27.60
2023-09-22T10:56:10.750Z,27.58
2023-09-22T10:57:26.346Z,27.55
2023-09-22T10:58:29.300Z,27.48
2023-09-22T10:59:34.876Z,27.44
2023-09-22T11:00:41.131Z,27.42
2023-09-22T11:01:47.299Z,27.40
2023-09-22T11:02:51.042Z,27.41
2023-09-22T11:03:54.805Z,27.41
2023-09-22T11:04:58.032Z,27.39
2023-09-22T11:06:07.698Z,27.36
2023-09-22T11:07:12.494Z,27.33
2023-09-22T11:08:17.082Z,27.32
2023-09-22T11:09:33.651Z,27.31
2023-09-22T11:10:36.778Z,27.34
2023-09-22T11:11:45.447Z,27.37
2023-09-22T11:12:50.293Z,27.40
2023-09-22T11:13:57.652Z,27.42
2023-09-22T11:15:03.805Z,27.44
2023-09-22T11:16:08.200Z,27.49
2023-09-22T11:17:11.521Z,27.55
2023-09-22T11:18:25.159Z,27.61
2023-09-22T11:19:28.181Z,27.69
2023-09-22T11:20:31.178Z,27.77
2023-09-22T11:21:42.230Z,27.85
2023-09-22T11:22:47.391Z,27.96
2023-09-22T11:23:52.372Z,28.10
2023-09-22T11:24:55.385Z,28.22
2023-09-22T11:26:10.399Z,28.34
2023-09-22T11:27:13.980Z,28.45
2023-09-22T11:28:18.125Z,28.51
2023-09-22T11:29:21.117Z,28.58
2023-09-22T11:30:28.863Z,28.64
2023-09-22T11:31:33.797Z,28.70
2023-09-22T11:32:36.972Z,28.77
2023-09-22T11:33:40.879Z,28.82
2023-09-22T11:35:06.657Z,28.88
2023-09-22T11:36:14.279Z,28.90
2023-09-22T11:37:32.122Z,28.85
2023-09-22T11:38:40.949Z,28.79
2023-09-22T11:39:44.314Z,28.73
2023-09-22T11:40:47.270Z,28.68
2023-09-22T11:41:50.427Z,28.63
2023-09-22T11:42:53.433Z,28.59
2023-09-22T11:43:56.663Z,28.54
2023-09-22T11:44:59.707Z,28.49
2023-09-22T11:46:14.880Z,28.44
2023-09-22T11:47:23.139Z,28.32
2023-09-22T11:48:26.159Z,28.16
2023-09-22T11:49:38.402Z,28.05
2023-09-22T11:50:41.520Z,27.93
2023-09-22T11:51:56.895Z,27.85
2023-09-22T11:53:28.924Z,27.76
2023-09-22T11:54:35.986Z,27.64
2023-09-22T11:55:39.090Z,27.59
2023-09-22T11:56:43.244Z,27.55
2023-09-22T11:57:47.194Z,27.53
2023-09-22T11:58:50.243Z,27.51
2023-09-22T11:59:59.816Z,27.47
2023-09-22T12:01:02.895Z,27.44
2023-09-22T12:02:07.785Z,27.41
2023-09-22T12:03:11.282Z,27.40
2023-09-22T12:04:15.123Z,27.37
2023-09-22T12:05:18.051Z,27.33
2023-09-22T12:06:20.974Z,27.28
2023-09-22T12:07:24.026Z,27.24
2023-09-22T12:08:27.065Z,27.18
2023-09-22T12:09:30.267Z,27.13
2023-09-22T12:10:33.220Z,27.09
2023-09-22T12:11:36.848Z,27.06
2023-09-22T12:12:39.960Z,27.02
2023-09-22T12:13:44.725Z,27.00
2023-09-22T12:14:48.139Z,26.98
2023-09-22T12:15:51.057Z,26.97
2023-09-22T12:16:54.223Z,26.95
2023-09-22T12:17:57.351Z,26.93
2023-09-22T12:19:01.174Z,26.91
2023-09-22T12:20:07.142Z,26.87
2023-09-22T12:21:10.103Z,26.87
2023-09-22T12:22:13.037Z,26.84
2023-09-22T12:23:15.955Z,26.82
2023-09-22T12:24:19.391Z,26.78
2023-09-22T12:25:22.481Z,26.75
2023-09-22T12:26:26.373Z,26.71
2023-09-22T12:27:29.444Z,26.68
2023-09-22T12:28:32.515Z,26.65
2023-09-22T12:29:35.649Z,26.63
2023-09-22T12:30:38.804Z,26.61
2023-09-22T12:31:41.753Z,26.60
2023-09-22T12:32:45.001Z,26.59
2023-09-22T12:33:48.792Z,26.58
2023-09-22T12:34:52.338Z,26.57
2023-09-22T12:35:58.751Z,26.56
2023-09-22T12:37:02.016Z,26.55
2023-09-22T12:38:05.963Z,26.55
2023-09-22T12:39:11.829Z,26.56
2023-09-22T12:40:15.755Z,26.55
2023-09-22T12:41:18.993Z,26.55
2023-09-22T12:42:21.857Z,26.56
2023-09-22T12:43:26.042Z,26.56
2023-09-22T12:44:29.632Z,26.57
2023-09-22T12:45:33.357Z,26.57
2023-09-22T12:46:36.831Z,26.60
2023-09-22T12:47:40.146Z,26.63
2023-09-22T12:48:43.063Z,26.67
2023-09-22T12:49:46.018Z,26.71
2023-09-22T12:50:58.489Z,26.75
2023-09-22T12:52:02.636Z,26.79
2023-09-22T12:53:05.764Z,26.81
2023-09-22T12:54:08.858Z,26.84
2023-09-22T12:55:11.869Z,26.88
2023-09-22T12:56:15.074Z,26.92
2023-09-22T12:57:18.228Z,26.96
2023-09-22T12:58:21.133Z,27.00
2023-09-22T12:59:23.998Z,27.05
2023-09-22T13:00:26.874Z,27.09
2023-09-22T13:01:30.098Z,27.11
2023-09-22T13:02:36.733Z,27.11
2023-09-22T13:03:40.064Z,27.11
2023-09-22T13:04:46.230Z,27.11
2023-09-22T13:05:49.243Z,27.12
2023-09-22T13:06:55.329Z,27.13
2023-09-22T13:07:58.293Z,27.15
2023-09-22T13:09:02.133Z,27.18
2023-09-22T13:10:08.399Z,27.22
2023-09-22T13:11:17.032Z,27.30
2023-09-22T13:12:20.017Z,27.39
2023-09-22T13:13:23.246Z,27.46
2023-09-22T13:14:26.238Z,27.52
2023-09-22T13:15:29.245Z,27.59
2023-09-22T13:16:32.888Z,27.64
2023-09-22T13:17:37.904Z,27.72
2023-09-22T13:18:43.708Z,27.78
2023-09-22T13:19:47.043Z,27.83
2023-09-22T13:20:50.043Z,27.87
2023-09-22T13:21:53.028Z,27.89
2023-09-22T13:22:56.396Z,27.92
2023-09-22T13:23:59.666Z,27.94
2023-09-22T13:25:02.744Z,27.98
2023-09-22T13:26:06.595Z,28.01
2023-09-22T13:27:10.608Z,28.06
2023-09-22T13:28:14.414Z,28.11
2023-09-22T13:29:18.376Z,28.20
2023-09-22T13:30:21.309Z,28.25
2023-09-22T13:31:27.565Z,28.27
2023-09-22T13:32:30.759Z,28.25
2023-09-22T13:33:34.374Z,28.20
2023-09-22T13:34:38.602Z,28.15
2023-09-22T13:35:41.573Z,28.09
2023-09-22T13:36:44.516Z,28.01
2023-09-22T13:37:47.516Z,27.95
2023-09-22T13:38:51.096Z,27.88
2023-09-22T13:39:54.073Z,27.85
2023-09-22T13:40:57.739Z,27.82
2023-09-22T13:42:00.939Z,27.79
2023-09-22T13:43:06.272Z,27.73
2023-09-22T13:44:11.405Z,27.65
2023-09-22T13:45:14.446Z,27.58
2023-09-22T13:46:18.059Z,27.51
2023-09-22T13:47:21.328Z,27.45
2023-09-22T13:48:24.336Z,27.40
2023-09-22T13:49:27.696Z,27.35
2023-09-22T13:50:31.064Z,27.31
2023-09-22T13:51:33.970Z,27.26
2023-09-22T13:52:38.077Z,27.20
2023-09-22T13:53:41.825Z,27.16
2023-09-22T13:54:44.910Z,27.11
2023-09-22T13:55:51.179Z,27.04
2023-09-22T13:56:54.411Z,26.98
2023-09-22T13:57:57.315Z,26.92
2023-09-22T13:59:00.228Z,26.87